createdAt,value
2022-08-21T00:00:07.941Z,17.90
2022-08-21T00:02:44.879Z,16.97
2022-08-21T00:05:11.460Z,20.70
2022-08-21T00:07:38.204Z,18.53
2022-08-21T00:10:05.210Z,18.30
2022-08-21T00:12:32.197Z,16.97
2022-08-21T00:14:59.130Z,19.83
2022-08-21T00:17:27.018Z,19.70
2022-08-21T00:19:53.586Z,18.73
2022-08-21T00:22:20.169Z,19.43
2022-08-21T00:24:46.752Z,20.17
2022-08-21T00:27:13.327Z,19.87
2022-08-21T00:29:43.041Z,20.93
2022-08-21T00:32:09.632Z,21.50
2022-08-21T00:34:36.109Z,20.80
2022-08-21T00:37:02.775Z,21.73
2022-08-21T00:39:29.315Z,21.37
2022-08-21T00:41:55.858Z,21.87
2022-08-21T00:44:22.375Z,21.90
2022-08-21T00:46:49.387Z,22.17
2022-08-21T00:49:15.977Z,21.20
2022-08-21T00:51:44.728Z,21.00
2022-08-21T00:54:18.712Z,23.80
2022-08-21T00:56:47.122Z,22.57
2022-08-21T00:59:15.744Z,23.13
2022-08-21T01:01:42.320Z,24.43
2022-08-21T01:04:08.870Z,26.43
2022-08-21T01:06:36.168Z,23.17
2022-08-21T01:09:03.639Z,20.90
2022-08-21T01:11:30.503Z,24.60
2022-08-21T01:13:57.191Z,21.20
2022-08-21T01:16:23.827Z,19.97
2022-08-21T01:18:50.894Z,21.77
2022-08-21T01:21:20.163Z,20.87
2022-08-21T01:23:48.455Z,23.17
2022-08-21T01:26:17.119Z,19.60
2022-08-21T01:28:46.723Z,20.60
2022-08-21T01:31:15.390Z,22.47
2022-08-21T01:33:43.507Z,23.50
2022-08-21T01:36:10.399Z,23.23
2022-08-21T01:38:36.931Z,19.73
2022-08-21T01:41:03.414Z,21.07
2022-08-21T01:43:32.701Z,21.50
2022-08-21T01:46:06.400Z,19.77
2022-08-21T01:48:33.153Z,19.17
2022-08-21T01:51:00.140Z,22.60
2022-08-21T01:53:33.136Z,22.50
2022-08-21T01:56:00.405Z,23.40
2022-08-21T01:58:26.909Z,23.50
2022-08-21T02:00:53.559Z,24.53
2022-08-21T02:03:31.280Z,23.87
2022-08-21T02:06:03.968Z,24.77
2022-08-21T02:08:30.968Z,27.90
2022-08-21T02:10:57.546Z,27.00
2022-08-21T02:13:24.041Z,27.10
2022-08-21T02:15:50.627Z,26.90
2022-08-21T02:18:17.319Z,26.17
2022-08-21T02:20:46.036Z,27.10
2022-08-21T02:23:12.987Z,25.60
2022-08-21T02:25:39.815Z,22.50
2022-08-21T02:28:08.496Z,25.80
2022-08-21T02:30:38.893Z,23.37
2022-08-21T02:33:06.316Z,26.03
2022-08-21T02:35:32.893Z,24.63
2022-08-21T02:38:01.559Z,25.70
2022-08-21T02:40:31.255Z,24.30
2022-08-21T02:42:58.969Z,26.90
2022-08-21T02:45:26.029Z,26.30
2022-08-21T02:47:54.726Z,26.77
2022-08-21T02:50:23.472Z,25.30
2022-08-21T02:52:55.125Z,25.87
2022-08-21T02:55:23.196Z,25.20
2022-08-21T02:57:49.828Z,26.03
2022-08-21T03:00:16.918Z,26.17
2022-08-21T03:02:43.406Z,27.17
2022-08-21T03:05:10.989Z,27.67
2022-08-21T03:07:38.416Z,28.07
2022-08-21T03:10:05.501Z,27.00
2022-08-21T03:12:32.113Z,28.17
2022-08-21T03:14:59.159Z,29.07
2022-08-21T03:17:29.705Z,27.70
2022-08-21T03:19:57.548Z,29.40
2022-08-21T03:22:24.075Z,27.70
2022-08-21T03:24:50.872Z,27.17
2022-08-21T03:27:18.334Z,29.87
2022-08-21T03:29:46.675Z,27.87
2022-08-21T03:32:13.281Z,26.70
2022-08-21T03:34:40.137Z,28.27
2022-08-21T03:37:08.414Z,28.83
2022-08-21T03:39:35.315Z,29.10
2022-08-21T03:42:02.093Z,28.20
2022-08-21T03:44:29.724Z,30.67
2022-08-21T03:46:57.125Z,28.07
2022-08-21T03:49:25.221Z,27.60
2022-08-21T03:51:55.535Z,28.70
2022-08-21T03:54:26.450Z,30.33
2022-08-21T03:56:55.499Z,27.77
2022-08-21T03:59:22.024Z,28.40
2022-08-21T04:01:52.617Z,29.53
2022-08-21T04:04:19.174Z,34.40
2022-08-21T04:06:45.673Z,30.30
2022-08-21T04:09:12.211Z,28.53
2022-08-21T04:11:38.821Z,29.43
2022-08-21T04:14:05.449Z,31.77
2022-08-21T04:16:31.978Z,28.57
2022-08-21T04:18:58.528Z,30.03
2022-08-21T04:21:25.071Z,30.53
2022-08-21T04:23:51.602Z,31.47
2022-08-21T04:26:19.247Z,30.83
2022-08-21T04:28:45.780Z,29.27
2022-08-21T04:31:12.445Z,31.10
2022-08-21T04:33:38.984Z,30.73
2022-08-21T04:36:05.642Z,29.93
2022-08-21T04:38:36.518Z,31.37
2022-08-21T04:41:05.740Z,30.00
2022-08-21T04:43:32.503Z,28.40
2022-08-21T04:45:59.016Z,28.70
2022-08-21T04:48:25.527Z,31.47
2022-08-21T04:50:57.669Z,30.67
2022-08-21T04:53:28.859Z,27.83
2022-08-21T04:55:56.459Z,29.00
2022-08-21T04:58:23.881Z,27.80
2022-08-21T05:00:52.696Z,30.27
2022-08-21T05:03:19.223Z,33.40
2022-08-21T05:05:45.950Z,32.80
2022-08-21T05:08:18.754Z,32.57
2022-08-21T05:10:45.492Z,32.93
2022-08-21T05:13:13.632Z,32.67
2022-08-21T05:15:40.969Z,32.77
2022-08-21T05:18:07.733Z,30.00
2022-08-21T05:20:37.326Z,30.80
2022-08-21T05:23:11.252Z,30.37
2022-08-21T05:25:38.257Z,29.73
2022-08-21T05:28:05.404Z,30.37
2022-08-21T05:30:33.413Z,30.63
2022-08-21T05:33:00.698Z,29.37
2022-08-21T05:35:28.324Z,31.97
2022-08-21T05:37:54.923Z,29.30
2022-08-21T05:40:23.374Z,29.47
2022-08-21T05:42:55.407Z,28.33
2022-08-21T05:45:43.220Z,28.07
2022-08-21T05:48:17.270Z,28.93
2022-08-21T05:50:44.520Z,29.70
2022-08-21T05:53:11.591Z,28.73
2022-08-21T05:55:44.265Z,29.57
2022-08-21T05:58:12.707Z,28.17
2022-08-21T06:00:39.441Z,27.87
2022-08-21T06:03:11.091Z,30.70
2022-08-21T06:05:37.753Z,32.70
2022-08-21T06:08:04.949Z,31.93
2022-08-21T06:10:32.142Z,31.67
2022-08-21T06:12:58.971Z,31.47
2022-08-21T06:15:25.649Z,29.90
2022-08-21T06:17:53.098Z,28.07
2022-08-21T06:20:19.667Z,27.47
2022-08-21T06:22:46.170Z,27.53
2022-08-21T06:25:12.792Z,28.07
2022-08-21T06:27:39.403Z,27.70
2022-08-21T06:30:06.666Z,25.57
2022-08-21T06:32:33.207Z,28.20
2022-08-21T06:34:59.738Z,26.33
2022-08-21T06:37:26.299Z,27.50
2022-08-21T06:39:53.148Z,26.33
2022-08-21T06:42:19.729Z,28.70
2022-08-21T06:44:46.682Z,28.60
2022-08-21T06:47:13.264Z,28.20
2022-08-21T06:49:39.909Z,28.23
2022-08-21T06:52:10.049Z,27.37
2022-08-21T06:54:36.737Z,27.27
2022-08-21T06:57:03.432Z,24.57
2022-08-21T06:59:30.004Z,24.30
2022-08-21T07:01:56.604Z,28.50
2022-08-21T07:04:23.222Z,27.10
2022-08-21T07:06:50.297Z,25.30
2022-08-21T07:09:18.695Z,26.00
2022-08-21T07:11:50.615Z,23.93
2022-08-21T07:14:20.576Z,25.87
2022-08-21T07:16:47.727Z,25.70
2022-08-21T07:19:14.224Z,26.40
2022-08-21T07:21:40.885Z,25.23
2022-08-21T07:24:07.504Z,27.30
2022-08-21T07:26:34.083Z,25.20
2022-08-21T07:29:00.661Z,25.53
2022-08-21T07:31:27.766Z,24.27
2022-08-21T07:33:55.000Z,24.53
2022-08-21T07:36:21.579Z,25.97
2022-08-21T07:38:48.200Z,27.40
2022-08-21T07:41:21.281Z,25.47
2022-08-21T07:43:47.967Z,26.60
2022-08-21T07:46:14.947Z,26.67
2022-08-21T07:48:41.935Z,24.70
2022-08-21T07:51:09.846Z,25.80
2022-08-21T07:53:37.175Z,23.37
2022-08-21T07:56:04.609Z,24.77
2022-08-21T07:58:32.082Z,24.00
2022-08-21T08:01:01.066Z,24.20
2022-08-21T08:03:28.939Z,23.73
2022-08-21T08:05:56.376Z,20.20
2022-08-21T08:08:22.957Z,23.67
2022-08-21T08:10:50.513Z,21.80
2022-08-21T08:13:17.369Z,23.73
2022-08-21T08:15:43.946Z,21.80
2022-08-21T08:18:10.509Z,21.50
2022-08-21T08:20:37.042Z,19.20
2022-08-21T08:23:04.258Z,21.63
2022-08-21T08:25:36.434Z,21.23
2022-08-21T08:28:16.128Z,22.07
2022-08-21T08:30:44.690Z,22.83
2022-08-21T08:33:11.243Z,20.90
2022-08-21T08:35:39.138Z,22.47
2022-08-21T08:38:06.446Z,20.67
2022-08-21T08:40:53.550Z,20.40
2022-08-21T08:43:20.292Z,19.90
2022-08-21T08:45:49.159Z,18.77
2022-08-21T08:48:18.396Z,18.33
2022-08-21T08:50:49.329Z,19.00
2022-08-21T08:53:18.393Z,18.83
2022-08-21T08:55:45.775Z,17.70
2022-08-21T08:58:23.847Z,20.27
2022-08-21T09:00:51.215Z,18.30
2022-08-21T09:03:18.549Z,16.37
2022-08-21T09:06:01.618Z,18.10
2022-08-21T09:08:33.274Z,17.23
2022-08-21T09:11:10.458Z,17.87
2022-08-21T09:13:43.195Z,17.37
2022-08-21T09:16:22.847Z,18.27
2022-08-21T09:18:52.475Z,18.10
2022-08-21T09:21:25.027Z,15.97
2022-08-21T09:24:13.959Z,16.97
2022-08-21T09:27:00.719Z,18.17
2022-08-21T09:29:30.692Z,17.63
2022-08-21T09:31:57.174Z,17.00
2022-08-21T09:34:28.166Z,17.63
2022-08-21T09:36:54.668Z,15.87
2022-08-21T09:39:29.046Z,15.00
2022-08-21T09:41:56.802Z,17.80
2022-08-21T09:44:28.208Z,15.90
2022-08-21T09:46:54.820Z,15.40
2022-08-21T09:49:31.646Z,16.60
2022-08-21T09:51:59.850Z,14.27
2022-08-21T09:54:34.527Z,13.70
2022-08-21T09:57:24.866Z,13.00
2022-08-21T09:59:52.120Z,14.60
2022-08-21T10:02:18.623Z,15.40
2022-08-21T10:04:50.206Z,14.37
2022-08-21T10:07:21.371Z,13.40
2022-08-21T10:09:59.028Z,13.73
2022-08-21T10:12:31.585Z,13.63
2022-08-21T10:15:18.149Z,13.37
2022-08-21T10:18:06.795Z,13.13
2022-08-21T10:20:49.176Z,11.70
2022-08-21T10:23:34.714Z,13.33
2022-08-21T10:26:21.921Z,12.70
2022-08-21T10:29:00.685Z,12.70
2022-08-21T10:31:27.199Z,9.83
2022-08-21T10:33:59.905Z,11.20
2022-08-21T10:36:36.739Z,11.13
2022-08-21T10:39:26.360Z,11.13
2022-08-21T10:42:13.929Z,10.50
2022-08-21T10:44:45.286Z,12.23
2022-08-21T10:47:12.022Z,12.30
2022-08-21T10:49:41.568Z,10.67
2022-08-21T10:52:27.024Z,10.10
2022-08-21T10:54:56.897Z,10.33
2022-08-21T10:57:37.012Z,10.77
2022-08-21T11:00:11.604Z,9.13
2022-08-21T11:02:41.437Z,10.17
2022-08-21T11:05:25.288Z,8.10
2022-08-21T11:07:59.653Z,9.70
2022-08-21T11:10:35.029Z,8.40
2022-08-21T11:13:03.999Z,9.20
2022-08-21T11:15:42.704Z,8.63
2022-08-21T11:18:23.964Z,8.37
2022-08-21T11:20:56.384Z,7.93
2022-08-21T11:23:29.165Z,8.30
2022-08-21T11:26:02.277Z,8.27
2022-08-21T11:28:36.705Z,7.57
2022-08-21T11:31:03.192Z,7.60
2022-08-21T11:33:35.877Z,8.70
2022-08-21T11:36:05.608Z,7.27
2022-08-21T11:38:40.616Z,7.17
2022-08-21T11:41:10.232Z,7.87
2022-08-21T11:43:39.284Z,6.90
2022-08-21T11:46:24.705Z,6.20
2022-08-21T11:49:03.580Z,6.93
2022-08-21T11:51:34.769Z,6.57
2022-08-21T11:54:08.832Z,5.90
2022-08-21T11:56:40.022Z,6.70
2022-08-21T11:59:09.594Z,7.00
2022-08-21T12:01:39.283Z,5.90
2022-08-21T12:04:09.440Z,6.33
2022-08-21T12:06:37.965Z,6.93
2022-08-21T12:09:06.630Z,5.97
2022-08-21T12:11:33.493Z,5.53
2022-08-21T12:14:01.755Z,5.80
2022-08-21T12:16:41.598Z,6.03
2022-08-21T12:19:08.369Z,6.50
2022-08-21T12:21:47.219Z,6.20
2022-08-21T12:24:13.726Z,5.43
2022-08-21T12:26:53.879Z,5.70
2022-08-21T12:29:26.413Z,5.37
2022-08-21T12:31:54.706Z,5.40
2022-08-21T12:34:23.894Z,5.87
2022-08-21T12:37:12.351Z,4.77
2022-08-21T12:39:39.920Z,5.50
2022-08-21T12:42:14.323Z,5.53
2022-08-21T12:44:43.919Z,5.23
2022-08-21T12:47:16.577Z,5.20
2022-08-21T12:49:55.669Z,4.90
2022-08-21T12:52:29.005Z,5.77
2022-08-21T12:54:55.560Z,5.07
2022-08-21T12:57:30.006Z,5.03
2022-08-21T13:00:01.626Z,4.80
2022-08-21T13:02:32.778Z,5.30
2022-08-21T13:05:02.824Z,6.20
2022-08-21T13:07:31.064Z,6.93
2022-08-21T13:09:59.943Z,6.80
2022-08-21T13:12:32.548Z,5.90
2022-08-21T13:15:01.093Z,6.50
2022-08-21T13:17:31.959Z,6.37
2022-08-21T13:19:59.760Z,6.47
2022-08-21T13:22:33.424Z,6.27
2022-08-21T13:25:02.408Z,5.83
2022-08-21T13:27:35.035Z,4.83
2022-08-21T13:30:10.747Z,4.90
2022-08-21T13:32:40.072Z,4.87
2022-08-21T13:35:12.381Z,4.87
2022-08-21T13:37:40.543Z,5.13
2022-08-21T13:40:08.155Z,4.30
2022-08-21T13:42:34.747Z,4.90
2022-08-21T13:45:01.319Z,4.70
2022-08-21T13:47:27.924Z,5.23
2022-08-21T13:49:59.142Z,5.80
2022-08-21T13:52:27.292Z,5.47
2022-08-21T13:54:55.899Z,5.20
2022-08-21T13:57:27.389Z,5.93
2022-08-21T13:59:53.936Z,6.10
2022-08-21T14:02:23.252Z,6.73
2022-08-21T14:04:58.487Z,5.13
2022-08-21T14:07:36.479Z,6.23
2022-08-21T14:10:05.835Z,5.70
2022-08-21T14:12:39.157Z,5.87
2022-08-21T14:15:06.517Z,4.50
2022-08-21T14:17:34.872Z,5.47
2022-08-21T14:20:01.831Z,5.00
2022-08-21T14:22:37.092Z,4.73
2022-08-21T14:25:28.866Z,4.20
2022-08-21T14:27:57.205Z,4.30
2022-08-21T14:30:34.713Z,4.83
2022-08-21T14:33:02.171Z,4.87
2022-08-21T14:35:28.728Z,4.07
2022-08-21T14:37:56.939Z,4.60
2022-08-21T14:40:24.849Z,4.53
2022-08-21T14:42:51.723Z,4.40
2022-08-21T14:45:27.525Z,3.93
2022-08-21T14:47:54.748Z,4.10
2022-08-21T14:50:21.341Z,4.43
2022-08-21T14:52:48.019Z,4.23
2022-08-21T14:55:17.008Z,4.40
2022-08-21T14:57:45.521Z,4.00
2022-08-21T15:00:13.859Z,4.50
2022-08-21T15:02:40.528Z,4.10
2022-08-21T15:05:07.396Z,4.40
2022-08-21T15:07:33.891Z,4.10
2022-08-21T15:10:00.606Z,3.80
2022-08-21T15:12:27.142Z,4.43
2022-08-21T15:14:53.884Z,4.23
2022-08-21T15:17:20.576Z,4.60
2022-08-21T15:19:47.284Z,4.10
2022-08-21T15:22:19.158Z,4.10
2022-08-21T15:24:54.718Z,4.57
2022-08-21T15:27:21.298Z,4.40
2022-08-21T15:29:47.865Z,4.20
2022-08-21T15:32:25.818Z,4.43
2022-08-21T15:34:52.499Z,5.50
2022-08-21T15:37:19.621Z,3.90
2022-08-21T15:39:52.218Z,4.33
2022-08-21T15:42:20.721Z,4.20
2022-08-21T15:44:47.884Z,4.20
2022-08-21T15:47:16.484Z,4.30
2022-08-21T15:49:46.011Z,4.10
2022-08-21T15:52:16.691Z,4.07
2022-08-21T15:54:43.265Z,4.40
2022-08-21T15:57:14.353Z,4.20
2022-08-21T15:59:42.801Z,4.20
2022-08-21T16:02:13.447Z,4.93
2022-08-21T16:04:40.000Z,4.50
2022-08-21T16:07:09.473Z,4.00
2022-08-21T16:09:36.434Z,4.30
2022-08-21T16:12:04.200Z,4.47
2022-08-21T16:14:31.604Z,4.30
2022-08-21T16:16:58.668Z,4.50
2022-08-21T16:19:26.407Z,4.30
2022-08-21T16:21:52.951Z,4.40
2022-08-21T16:24:19.467Z,4.90
2022-08-21T16:26:46.333Z,4.23
2022-08-21T16:29:25.066Z,4.13
2022-08-21T16:31:53.522Z,4.80
2022-08-21T16:34:20.943Z,4.90
2022-08-21T16:36:48.017Z,4.63
2022-08-21T16:39:14.621Z,4.83
2022-08-21T16:41:41.161Z,4.90
2022-08-21T16:44:07.914Z,5.10
2022-08-21T16:46:38.655Z,5.80
2022-08-21T16:49:05.202Z,4.60
2022-08-21T16:51:31.734Z,4.70
2022-08-21T16:53:58.697Z,5.30
2022-08-21T16:56:25.476Z,4.80
2022-08-21T16:58:53.929Z,4.83
2022-08-21T17:01:22.393Z,4.37
2022-08-21T17:03:51.126Z,5.03
2022-08-21T17:06:18.352Z,5.17
2022-08-21T17:08:45.073Z,4.60
2022-08-21T17:11:17.099Z,5.07
2022-08-21T17:14:05.743Z,5.00
2022-08-21T17:16:32.521Z,5.90
2022-08-21T17:18:59.026Z,4.60
2022-08-21T17:21:25.558Z,5.00
2022-08-21T17:23:52.156Z,5.13
2022-08-21T17:26:20.161Z,5.00
2022-08-21T17:28:47.171Z,4.40
2022-08-21T17:31:14.152Z,5.27
2022-08-21T17:33:50.457Z,5.33
2022-08-21T17:36:27.707Z,5.40
2022-08-21T17:38:54.516Z,5.03
2022-08-21T17:41:21.304Z,4.80
2022-08-21T17:43:48.155Z,4.70
2022-08-21T17:46:17.898Z,5.03
2022-08-21T17:48:47.241Z,5.40
2022-08-21T17:51:14.670Z,4.50
2022-08-21T17:53:42.149Z,5.30
2022-08-21T17:56:08.902Z,6.00
2022-08-21T17:58:36.218Z,4.80
2022-08-21T18:01:04.064Z,4.40
2022-08-21T18:03:30.772Z,5.37
2022-08-21T18:06:03.786Z,5.50
2022-08-21T18:08:32.044Z,5.93
2022-08-21T18:10:59.316Z,6.63
2022-08-21T18:13:29.033Z,5.90
2022-08-21T18:15:56.439Z,5.93
2022-08-21T18:18:24.081Z,5.77
2022-08-21T18:20:51.158Z,6.40
2022-08-21T18:23:17.711Z,5.20
2022-08-21T18:25:47.233Z,5.70
2022-08-21T18:28:14.197Z,6.17
2022-08-21T18:30:42.275Z,5.30
2022-08-21T18:33:09.343Z,6.30
2022-08-21T18:35:35.983Z,5.67
2022-08-21T18:38:03.043Z,6.60
2022-08-21T18:40:31.455Z,7.30
2022-08-21T18:43:01.529Z,6.13
2022-08-21T18:45:28.371Z,6.27
2022-08-21T18:47:55.695Z,6.30
2022-08-21T18:53:18.238Z,6.80
2022-08-21T18:55:54.713Z,6.90
2022-08-21T18:58:24.838Z,7.37
2022-08-21T19:00:52.742Z,6.53
2022-08-21T19:03:23.869Z,6.63
2022-08-21T19:05:51.379Z,6.23
2022-08-21T19:08:19.019Z,6.07
2022-08-21T19:10:46.769Z,6.40
2022-08-21T19:13:15.083Z,6.37
2022-08-21T19:15:42.382Z,6.40
2022-08-21T19:18:11.037Z,6.00
2022-08-21T19:20:41.512Z,7.00
2022-08-21T19:23:09.827Z,7.13
2022-08-21T19:25:41.847Z,7.03
2022-08-21T19:28:11.388Z,7.00
2022-08-21T19:30:58.350Z,6.30
2022-08-21T19:33:35.764Z,6.70
2022-08-21T19:36:04.087Z,7.10
2022-08-21T19:38:30.781Z,6.53
2022-08-21T19:40:59.089Z,6.70
2022-08-21T19:43:26.331Z,5.90
2022-08-21T19:45:56.951Z,7.20
2022-08-21T19:48:24.557Z,6.60
2022-08-21T19:50:51.623Z,7.57
2022-08-21T19:53:19.256Z,5.83
2022-08-21T19:55:46.719Z,7.00
2022-08-21T19:58:38.345Z,6.40
2022-08-21T20:01:11.305Z,6.60
2022-08-21T20:03:43.519Z,7.50
2022-08-21T20:06:11.095Z,7.23
2022-08-21T20:08:37.880Z,6.07
2022-08-21T20:11:06.154Z,7.20
2022-08-21T20:13:33.727Z,5.63
2022-08-21T20:16:01.776Z,6.80
2022-08-21T20:18:28.540Z,6.00
2022-08-21T20:20:55.911Z,6.33
2022-08-21T20:23:30.108Z,6.70
2022-08-21T20:25:57.922Z,6.57
2022-08-21T20:28:24.629Z,6.83
2022-08-21T20:30:52.985Z,7.00
2022-08-21T20:33:19.617Z,6.27
2022-08-21T20:35:49.923Z,6.70
2022-08-21T20:38:16.843Z,6.07
2022-08-21T20:40:44.249Z,6.17
2022-08-21T20:43:12.838Z,6.80
2022-08-21T20:45:40.090Z,5.40
2022-08-21T20:48:15.578Z,6.30
2022-08-21T20:50:46.076Z,5.10
2022-08-21T20:53:43.441Z,6.23
2022-08-21T20:56:16.025Z,6.00
2022-08-21T20:58:47.574Z,5.27
2022-08-21T21:01:15.384Z,5.47
2022-08-21T21:03:48.398Z,5.13
2022-08-21T21:06:25.137Z,4.83
2022-08-21T21:08:54.329Z,5.27
2022-08-21T21:11:27.907Z,5.37
2022-08-21T21:13:59.371Z,5.77
2022-08-21T21:16:36.416Z,4.37
2022-08-21T21:19:23.597Z,5.60
2022-08-21T21:21:53.920Z,5.67
2022-08-21T21:24:27.725Z,6.73
2022-08-21T21:27:11.517Z,5.33
2022-08-21T21:29:50.696Z,5.33
2022-08-21T21:32:18.657Z,4.80
2022-08-21T21:34:51.165Z,5.77
2022-08-21T21:37:25.335Z,5.40
2022-08-21T21:40:27.203Z,5.90
2022-08-21T21:43:07.136Z,5.60
2022-08-21T21:46:06.268Z,5.97
2022-08-21T21:48:54.597Z,4.93
2022-08-21T21:51:36.113Z,6.50
2022-08-21T21:54:14.439Z,5.30
2022-08-21T21:56:55.098Z,5.50
2022-08-21T21:59:40.373Z,5.43
2022-08-21T22:02:13.508Z,5.30
2022-08-21T22:04:40.231Z,5.90
2022-08-21T22:07:26.698Z,5.37
2022-08-21T22:09:54.288Z,5.60
2022-08-21T22:12:34.428Z,5.50
2022-08-21T22:15:27.548Z,5.33
2022-08-21T22:18:05.183Z,5.43
2022-08-21T22:20:36.352Z,5.90
2022-08-21T22:23:03.984Z,5.03
2022-08-21T22:25:36.389Z,5.53
2022-08-21T22:31:14.701Z,5.53
2022-08-21T22:34:03.499Z,6.20
2022-08-21T22:36:31.878Z,5.47
2022-08-21T22:38:58.635Z,5.87
2022-08-21T22:41:29.116Z,5.60
2022-08-21T22:43:57.228Z,5.30
2022-08-21T22:46:38.527Z,5.33
2022-08-21T22:49:08.088Z,5.90
2022-08-21T22:51:37.696Z,4.83
2022-08-21T22:54:05.072Z,5.60
2022-08-21T22:56:45.967Z,6.07
2022-08-21T22:59:27.066Z,5.77
2022-08-21T23:01:58.344Z,6.03
2022-08-21T23:04:25.680Z,5.70
2022-08-21T23:06:58.191Z,6.00
2022-08-21T23:09:29.489Z,6.10
2022-08-21T23:11:57.598Z,6.70
2022-08-21T23:14:24.602Z,6.50
2022-08-21T23:16:54.558Z,6.07
2022-08-21T23:19:44.849Z,5.67
2022-08-21T23:22:29.641Z,5.30
2022-08-21T23:24:59.229Z,6.10
2022-08-21T23:27:35.791Z,5.80
2022-08-21T23:30:07.611Z,6.03
2022-08-21T23:32:47.099Z,6.50
2022-08-21T23:35:44.361Z,5.97
2022-08-21T23:38:19.851Z,7.07
2022-08-21T23:40:56.299Z,6.73
2022-08-21T23:43:22.793Z,6.50
2022-08-21T23:45:59.781Z,6.80
2022-08-21T23:48:29.342Z,5.57
2022-08-21T23:51:00.581Z,6.40
2022-08-21T23:53:50.282Z,6.70
2022-08-21T23:56:31.996Z,7.57
2022-08-21T23:59:17.218Z,7.40
